createdAt,value
2023-08-12T03:17:27.991Z,14.20
2023-08-12T03:19:55.462Z,14.30
2023-08-12T03:22:22.185Z,14.30
2023-08-12T03:24:49.187Z,14.40
2023-08-12T03:27:16.147Z,14.60
2023-08-12T03:29:42.909Z,14.70
2023-08-12T03:32:09.751Z,14.90
2023-08-12T03:34:36.460Z,15.50
2023-08-12T03:37:03.199Z,16.30
2023-08-12T03:39:29.920Z,17.00
2023-08-12T03:41:56.649Z,17.60
2023-08-12T03:44:23.336Z,18.20
2023-08-12T03:46:50.162Z,18.70
2023-08-12T03:49:20.834Z,19.30
2023-08-12T03:51:49.215Z,19.80
2023-08-12T03:54:15.940Z,20.20
2023-08-12T03:56:42.689Z,20.60
2023-08-12T03:59:09.405Z,20.70
2023-08-12T04:01:36.237Z,20.30
2023-08-12T04:04:02.963Z,20.00
2023-08-12T04:06:29.803Z,19.70
2023-08-12T04:08:56.539Z,19.70
2023-08-12T04:11:23.239Z,19.70
2023-08-12T04:13:50.016Z,19.70
2023-08-12T04:16:17.237Z,19.70
2023-08-12T04:18:44.367Z,19.90
2023-08-12T04:21:12.115Z,20.10
2023-08-12T04:23:38.908Z,20.10
2023-08-12T04:26:05.669Z,20.40
2023-08-12T04:28:32.497Z,20.60
2023-08-12T04:30:59.319Z,20.70
2023-08-12T04:33:26.142Z,20.80
2023-08-12T04:35:53.773Z,21.10
2023-08-12T04:38:20.745Z,21.40
2023-08-12T04:40:48.105Z,21.50
2023-08-12T04:43:14.950Z,21.60
2023-08-12T04:45:41.704Z,21.80
2023-08-12T04:48:11.907Z,22.30
2023-08-12T04:50:39.580Z,22.30
2023-08-12T04:53:06.582Z,22.40
2023-08-12T04:55:33.592Z,22.60
2023-08-12T04:58:00.393Z,22.90
2023-08-12T05:00:29.348Z,23.10
2023-08-12T05:02:57.741Z,23.10
2023-08-12T05:05:24.701Z,23.60
2023-08-12T05:07:51.571Z,23.70
2023-08-12T05:10:18.379Z,23.80
2023-08-12T05:12:45.703Z,23.90
2023-08-12T05:15:12.513Z,24.10
2023-08-12T05:17:39.352Z,24.40
2023-08-12T05:20:06.748Z,24.90
2023-08-12T05:22:33.477Z,24.50
2023-08-12T05:25:00.256Z,24.50
2023-08-12T05:27:26.993Z,24.90
2023-08-12T05:29:53.763Z,25.20
2023-08-12T05:32:20.480Z,25.30
2023-08-12T05:34:47.237Z,25.40
2023-08-12T05:37:13.993Z,25.70
2023-08-12T05:39:40.746Z,25.60
2023-08-12T05:42:07.537Z,26.10
2023-08-12T05:44:34.372Z,26.00
2023-08-12T05:47:01.067Z,26.20
2023-08-12T05:49:27.877Z,26.30
2023-08-12T05:51:54.592Z,25.90
2023-08-12T05:54:21.323Z,26.00
2023-08-12T05:56:48.186Z,26.40
2023-08-12T05:59:14.975Z,26.80
2023-08-12T06:01:41.754Z,26.90
2023-08-12T06:04:08.569Z,26.60
2023-08-12T06:06:35.365Z,26.70
2023-08-12T06:09:02.140Z,26.40
2023-08-12T06:11:29.094Z,26.90
2023-08-12T06:13:55.873Z,27.00
2023-08-12T06:16:22.652Z,27.00
2023-08-12T06:18:49.442Z,27.20
2023-08-12T06:21:16.178Z,26.70
2023-08-12T06:23:42.873Z,26.70
2023-08-12T06:26:09.616Z,26.90
2023-08-12T06:28:36.366Z,27.10
2023-08-12T06:31:03.175Z,27.00
2023-08-12T06:33:29.889Z,27.10
2023-08-12T06:35:56.755Z,27.20
2023-08-12T06:38:23.523Z,27.60
2023-08-12T06:40:50.417Z,27.90
2023-08-12T06:43:17.515Z,28.00
2023-08-12T06:45:44.290Z,28.30
2023-08-12T06:48:11.137Z,28.10
2023-08-12T06:50:37.943Z,27.80
2023-08-12T06:53:04.855Z,28.20
2023-08-12T06:55:31.598Z,28.40
2023-08-12T06:57:58.356Z,28.50
2023-08-12T07:00:25.183Z,28.30
2023-08-12T07:02:51.983Z,28.20
2023-08-12T07:05:18.746Z,28.20
2023-08-12T07:07:45.513Z,28.60
2023-08-12T07:10:12.300Z,28.90
2023-08-12T07:12:39.054Z,29.20
2023-08-12T07:15:06.059Z,29.00
2023-08-12T07:17:32.894Z,28.90
2023-08-12T07:19:59.673Z,28.90
2023-08-12T07:22:26.571Z,29.10
2023-08-12T07:24:53.644Z,29.40
2023-08-12T07:27:20.484Z,29.30
2023-08-12T07:29:47.658Z,29.60
2023-08-12T07:32:14.651Z,29.70
2023-08-12T07:34:41.705Z,30.00
2023-08-12T07:37:08.538Z,30.10
2023-08-12T07:39:35.272Z,30.20
2023-08-12T07:42:02.051Z,29.90
2023-08-12T07:44:29.006Z,30.50
2023-08-12T07:46:55.941Z,30.40
2023-08-12T07:49:23.061Z,30.60
2023-08-12T07:51:49.977Z,30.80
2023-08-12T07:54:16.832Z,31.10
2023-08-12T07:56:43.557Z,30.80
2023-08-12T07:59:10.312Z,30.80
2023-08-12T08:01:39.039Z,31.00
2023-08-12T08:04:06.283Z,31.30
2023-08-12T08:06:33.034Z,31.50
2023-08-12T08:09:01.785Z,30.60
2023-08-12T08:11:29.162Z,31.30
2023-08-12T08:13:56.582Z,31.20
2023-08-12T08:16:23.390Z,31.60
2023-08-12T08:18:50.475Z,31.10
2023-08-12T08:21:17.275Z,31.40
2023-08-12T08:23:44.034Z,31.80
2023-08-12T08:26:10.926Z,31.70
2023-08-12T08:28:38.396Z,31.40
2023-08-12T08:31:05.401Z,31.70
2023-08-12T08:33:32.221Z,31.80
2023-08-12T08:35:58.906Z,31.60
2023-08-12T08:38:25.630Z,32.20
2023-08-12T08:40:52.965Z,32.20
2023-08-12T08:43:25.588Z,32.10
2023-08-12T08:45:54.131Z,31.90
2023-08-12T08:48:21.617Z,31.80
2023-08-12T08:50:49.551Z,32.20
2023-08-12T08:53:17.399Z,32.40
2023-08-12T08:55:44.391Z,32.00
2023-08-12T09:00:38.963Z,32.10
2023-08-12T09:03:06.700Z,32.30
2023-08-12T09:05:35.083Z,32.70
2023-08-12T09:08:02.901Z,32.60
2023-08-12T09:10:30.925Z,32.40
2023-08-12T09:15:25.338Z,32.30
2023-08-12T09:17:52.960Z,32.40
2023-08-12T09:20:19.864Z,32.80
2023-08-12T09:22:46.626Z,32.70
2023-08-12T09:25:14.059Z,33.30
2023-08-12T09:27:40.819Z,33.40
2023-08-12T09:32:36.005Z,33.80
2023-08-12T09:35:07.264Z,33.30
2023-08-12T09:37:34.515Z,33.50
2023-08-12T09:40:01.679Z,33.50
2023-08-12T09:42:29.230Z,32.90
2023-08-12T09:47:26.097Z,32.60
2023-08-12T09:49:52.881Z,32.50
2023-08-12T09:52:20.096Z,32.70
2023-08-12T09:54:46.874Z,32.90
2023-08-12T09:57:15.368Z,33.60
2023-08-12T09:59:42.647Z,33.80
2023-08-12T10:02:14.538Z,34.10
2023-08-12T10:04:43.453Z,34.40
2023-08-12T10:07:16.106Z,34.50
2023-08-12T10:09:43.018Z,34.30
2023-08-12T10:14:38.625Z,34.30
2023-08-12T10:17:06.887Z,34.30
2023-08-12T10:19:35.138Z,34.90
2023-08-12T10:22:03.421Z,34.40
2023-08-12T10:24:30.603Z,34.30
2023-08-12T10:26:57.578Z,33.90
2023-08-12T10:31:52.800Z,34.50
2023-08-12T10:34:23.643Z,34.70
2023-08-12T10:37:03.889Z,34.60
2023-08-12T10:41:58.590Z,34.40
2023-08-12T10:44:28.853Z,35.20
2023-08-12T10:46:55.920Z,33.80
2023-08-12T10:49:23.008Z,33.90
2023-08-12T10:51:50.663Z,33.80
2023-08-12T10:54:18.264Z,34.70
2023-08-12T10:57:10.178Z,35.00
2023-08-12T10:59:46.024Z,35.00
2023-08-12T11:02:19.232Z,35.80
2023-08-12T11:04:49.706Z,34.60
2023-08-12T11:07:17.525Z,35.40
2023-08-12T11:09:44.331Z,34.60
2023-08-12T11:12:12.537Z,35.10
2023-08-12T11:15:08.595Z,35.40
2023-08-12T11:17:39.195Z,35.80
2023-08-12T11:22:33.823Z,35.10
2023-08-12T11:25:01.017Z,35.40
2023-08-12T11:27:27.754Z,35.10
2023-08-12T11:29:54.962Z,35.00
2023-08-12T11:32:21.780Z,34.50
2023-08-12T11:37:16.850Z,34.80
2023-08-12T11:39:43.664Z,36.10
2023-08-12T11:42:10.463Z,35.60
2023-08-12T11:44:37.381Z,35.60
2023-08-12T11:47:04.180Z,35.70
2023-08-12T11:49:30.914Z,35.10
2023-08-12T11:51:57.685Z,34.80
2023-08-12T11:56:51.705Z,35.30
2023-08-12T12:01:50.154Z,35.80
2023-08-12T12:04:17.437Z,35.60
2023-08-12T12:06:45.007Z,35.90
2023-08-12T12:09:11.925Z,35.40
2023-08-12T12:11:39.119Z,36.00
2023-08-12T12:14:06.475Z,35.40
2023-08-12T12:16:43.841Z,35.70
2023-08-12T12:19:17.934Z,36.00
2023-08-12T12:21:46.953Z,36.00
2023-08-12T12:24:13.937Z,37.40
2023-08-12T12:26:40.800Z,36.90
2023-08-12T12:31:35.460Z,36.60
2023-08-12T12:34:02.756Z,36.20
2023-08-12T12:36:29.601Z,36.00
2023-08-12T12:41:23.668Z,35.60
2023-08-12T12:43:50.592Z,35.80
2023-08-12T12:46:17.597Z,35.50
2023-08-12T12:48:45.051Z,35.70
2023-08-12T12:51:12.076Z,35.40
2023-08-12T12:53:38.985Z,35.40
2023-08-12T12:56:06.967Z,35.20
2023-08-12T12:58:38.729Z,34.60
2023-08-12T13:01:06.585Z,34.60
2023-08-12T13:03:34.216Z,35.30
2023-08-12T13:06:03.185Z,35.60
2023-08-12T13:08:31.967Z,35.20
2023-08-12T13:10:59.137Z,35.50
2023-08-12T13:13:26.084Z,35.80
2023-08-12T13:15:53.263Z,34.70
2023-08-12T13:18:20.184Z,34.70
2023-08-12T13:20:49.183Z,29.90
2023-08-12T13:23:16.567Z,30.10
2023-08-12T13:25:43.537Z,27.20
2023-08-12T13:33:06.592Z,23.80
2023-08-12T13:35:33.480Z,23.60
2023-08-12T13:38:00.312Z,23.40
2023-08-12T13:40:27.537Z,23.20
2023-08-12T13:42:54.507Z,23.00
2023-08-12T13:45:21.533Z,23.10
2023-08-12T13:47:48.702Z,22.80
2023-08-12T13:50:15.687Z,22.60
2023-08-12T13:52:42.583Z,22.70
2023-08-12T13:55:10.331Z,22.50
2023-08-12T13:57:37.237Z,22.80
2023-08-12T14:00:10.293Z,22.60
2023-08-12T14:02:40.679Z,22.60
2023-08-12T14:05:08.796Z,22.60
2023-08-12T14:07:35.667Z,22.70
2023-08-12T14:10:02.558Z,22.80
2023-08-12T14:12:29.445Z,22.70
2023-08-12T14:14:56.458Z,22.60
2023-08-12T14:17:24.426Z,22.50
2023-08-12T14:19:59.418Z,22.30
2023-08-12T14:22:26.692Z,22.20
2023-08-12T14:24:53.967Z,22.20
2023-08-12T14:27:21.005Z,22.20
2023-08-12T14:29:48.047Z,22.00
2023-08-12T14:32:17.195Z,22.00
2023-08-12T14:34:46.346Z,22.00
2023-08-12T14:37:14.237Z,22.00
2023-08-12T14:39:41.454Z,22.00
2023-08-12T14:42:09.670Z,21.90
2023-08-12T14:44:37.568Z,21.80
2023-08-12T14:47:05.137Z,21.90
2023-08-12T14:49:32.189Z,21.90
2023-08-12T14:51:59.047Z,21.80
2023-08-12T14:54:25.979Z,21.80
2023-08-12T14:56:52.813Z,21.80
2023-08-12T14:59:19.764Z,21.80
2023-08-12T15:01:46.626Z,21.60
2023-08-12T15:04:13.541Z,21.50
2023-08-12T15:06:40.516Z,21.50
2023-08-12T15:09:07.797Z,21.60
2023-08-12T15:11:34.641Z,21.50
2023-08-12T15:14:01.610Z,21.50
2023-08-12T15:16:28.647Z,21.50
2023-08-12T15:18:55.501Z,21.40
2023-08-12T15:21:22.356Z,21.20
2023-08-12T15:23:49.322Z,21.20
2023-08-12T15:26:16.327Z,21.30
2023-08-12T15:28:43.183Z,21.20
2023-08-12T15:31:11.930Z,21.20
2023-08-12T15:33:38.790Z,21.30
2023-08-12T15:36:06.036Z,21.40
2023-08-12T15:38:33.071Z,21.30
2023-08-12T15:41:00.036Z,21.20
2023-08-12T15:43:27.530Z,21.10
2023-08-12T15:45:54.462Z,21.20
2023-08-12T15:48:21.295Z,21.10
2023-08-12T15:50:48.162Z,21.10
2023-08-12T15:53:15.703Z,21.10
2023-08-12T15:55:42.553Z,20.90
2023-08-12T15:58:09.430Z,20.90
2023-08-12T16:00:36.347Z,20.90
2023-08-12T16:03:03.525Z,20.80
2023-08-12T16:05:30.503Z,20.80
2023-08-12T16:07:57.385Z,20.60
2023-08-12T16:10:24.560Z,20.60
2023-08-12T16:12:51.681Z,20.60
2023-08-12T16:15:18.614Z,20.60
2023-08-12T16:17:45.614Z,20.70
2023-08-12T16:20:13.364Z,20.80
2023-08-12T16:22:40.403Z,20.80
2023-08-12T16:25:08.167Z,20.80
2023-08-12T16:27:35.081Z,20.70
2023-08-12T16:30:02.220Z,20.60
2023-08-12T16:32:29.206Z,20.50
2023-08-12T16:34:56.104Z,20.60
2023-08-12T16:37:23.084Z,20.50
2023-08-12T16:39:51.319Z,20.50
2023-08-12T16:42:20.070Z,20.60
2023-08-12T16:44:48.425Z,20.50
2023-08-12T16:47:15.928Z,20.60
2023-08-12T16:49:42.767Z,20.40
2023-08-12T16:52:09.736Z,20.40
2023-08-12T16:54:36.799Z,20.30
2023-08-12T16:57:05.866Z,20.20
2023-08-12T16:59:32.846Z,20.20
2023-08-12T17:01:59.679Z,20.20
2023-08-12T17:04:26.788Z,20.20
2023-08-12T17:06:53.637Z,20.20
2023-08-12T17:09:20.760Z,20.40
2023-08-12T17:11:47.642Z,20.20
2023-08-12T17:14:14.519Z,20.20
2023-08-12T17:16:41.469Z,20.10
2023-08-12T17:19:08.372Z,20.10
2023-08-12T17:21:35.301Z,20.20
2023-08-12T17:24:02.239Z,20.10
2023-08-12T17:26:29.116Z,20.10
2023-08-12T17:28:56.056Z,20.10
2023-08-12T17:31:23.234Z,20.00
2023-08-12T17:33:50.423Z,19.90
2023-08-12T17:36:17.441Z,19.90
2023-08-12T17:38:44.328Z,19.90
2023-08-12T17:41:11.377Z,19.90
2023-08-12T17:43:38.760Z,19.80
2023-08-12T17:46:05.890Z,19.80
2023-08-12T17:48:32.912Z,19.70
2023-08-12T17:50:59.773Z,19.70
2023-08-12T17:53:26.706Z,19.60
2023-08-12T17:55:53.605Z,19.60
2023-08-12T17:58:20.554Z,19.50
2023-08-12T18:00:47.869Z,19.50
2023-08-12T18:03:14.896Z,19.40
2023-08-12T18:05:41.827Z,19.40
2023-08-12T18:08:08.674Z,19.20
2023-08-12T18:10:35.601Z,19.10
2023-08-12T18:13:02.411Z,19.10
2023-08-12T18:15:29.336Z,19.10
2023-08-12T18:17:56.349Z,18.90
2023-08-12T18:20:23.328Z,18.80
2023-08-12T18:22:50.207Z,18.70
2023-08-12T18:25:17.112Z,18.60
2023-08-12T18:27:44.003Z,18.40
2023-08-12T18:30:11.316Z,18.50
2023-08-12T18:32:38.933Z,18.40
2023-08-12T18:35:06.782Z,18.30
2023-08-12T18:37:34.359Z,18.20
2023-08-12T18:40:01.282Z,18.20
2023-08-12T18:42:28.218Z,18.30
2023-08-12T18:44:55.043Z,18.20
2023-08-12T18:47:21.975Z,18.10
2023-08-12T18:49:48.912Z,18.00
2023-08-12T18:52:16.411Z,18.00
2023-08-12T18:54:43.334Z,18.10
2023-08-12T18:57:10.191Z,18.10
2023-08-12T18:59:38.522Z,18.10
2023-08-12T19:02:05.648Z,18.00
2023-08-12T19:04:32.539Z,17.90
2023-08-12T19:06:59.398Z,18.10
2023-08-12T19:09:27.205Z,18.00
2023-08-12T19:11:54.404Z,17.90
2023-08-12T19:14:21.407Z,17.70
2023-08-12T19:16:48.429Z,17.90
2023-08-12T19:19:17.079Z,17.90
2023-08-12T19:21:44.722Z,17.80
2023-08-12T19:24:11.731Z,17.60
2023-08-12T19:26:38.621Z,17.80
2023-08-12T19:29:05.621Z,17.70
2023-08-12T19:31:32.588Z,17.60
2023-08-12T19:33:59.665Z,17.60
2023-08-12T19:36:26.506Z,17.50
2023-08-12T19:38:53.418Z,17.50
2023-08-12T19:41:20.364Z,17.40
2023-08-12T19:43:47.321Z,17.40
2023-08-12T19:46:14.237Z,17.40
2023-08-12T19:48:41.125Z,17.40
2023-08-12T19:51:09.281Z,17.40
2023-08-12T19:53:36.144Z,17.30
2023-08-12T19:56:03.006Z,17.40
2023-08-12T19:58:29.887Z,17.20
2023-08-12T20:00:56.904Z,17.30
2023-08-12T20:03:24.253Z,17.30
2023-08-12T20:05:51.158Z,17.20
2023-08-12T20:08:18.078Z,17.20
2023-08-12T20:10:44.949Z,17.20
2023-08-12T20:13:11.826Z,17.20
2023-08-12T20:15:38.773Z,17.20
2023-08-12T20:18:05.735Z,17.30
2023-08-12T20:20:34.051Z,17.20
2023-08-12T20:23:06.139Z,17.10
2023-08-12T20:25:35.446Z,17.20
2023-08-12T20:28:02.774Z,17.10
2023-08-12T20:30:29.682Z,17.10
2023-08-12T20:32:56.818Z,17.10
2023-08-12T20:35:23.883Z,17.00
2023-08-12T20:37:51.070Z,17.10
2023-08-12T20:40:19.105Z,17.10
2023-08-12T20:42:46.328Z,17.00
2023-08-12T20:45:16.291Z,17.00
2023-08-12T20:47:43.782Z,17.00
2023-08-12T20:50:10.974Z,16.90
2023-08-12T20:52:37.801Z,16.90
2023-08-12T20:55:04.995Z,17.00
2023-08-12T20:57:31.921Z,16.90
2023-08-12T21:00:01.776Z,16.90
2023-08-12T21:02:29.916Z,16.90
2023-08-12T21:04:56.965Z,16.90
2023-08-12T21:07:23.852Z,16.90
2023-08-12T21:09:50.732Z,17.00
2023-08-12T21:12:17.592Z,16.80
2023-08-12T21:14:44.596Z,16.90
2023-08-12T21:17:11.567Z,16.70
2023-08-12T21:19:38.516Z,16.60
2023-08-12T21:22:05.522Z,16.50
2023-08-12T21:24:32.440Z,16.40
2023-08-12T21:26:59.392Z,16.40
2023-08-12T21:29:26.326Z,16.50
2023-08-12T21:31:53.259Z,16.50
2023-08-12T21:34:20.151Z,16.40
2023-08-12T21:36:47.037Z,16.40
2023-08-12T21:39:14.542Z,16.30
2023-08-12T21:41:41.497Z,16.30
2023-08-12T21:44:08.365Z,16.30
2023-08-12T21:46:35.251Z,16.30
2023-08-12T21:49:02.315Z,16.40
2023-08-12T21:51:29.244Z,16.30
2023-08-12T21:53:56.143Z,16.40
2023-08-12T21:56:23.141Z,16.30
2023-08-12T21:58:50.014Z,16.40
2023-08-12T22:01:16.908Z,16.40
2023-08-12T22:03:43.846Z,16.30
2023-08-12T22:06:11.843Z,16.20
2023-08-12T22:08:38.815Z,16.20
2023-08-12T22:11:05.798Z,16.20
2023-08-12T22:13:32.809Z,16.10
2023-08-12T22:15:59.787Z,16.20
2023-08-12T22:18:26.659Z,16.20
2023-08-12T22:20:54.339Z,16.10
2023-08-12T22:23:23.252Z,16.00
2023-08-12T22:25:50.919Z,15.90
2023-08-12T22:28:19.912Z,15.80
2023-08-12T22:30:49.034Z,15.80
2023-08-12T22:33:16.580Z,15.80
2023-08-12T22:35:43.594Z,16.00
2023-08-12T22:38:10.859Z,15.90
2023-08-12T22:40:38.054Z,15.90
2023-08-12T22:43:05.269Z,15.90
2023-08-12T22:45:34.905Z,15.90
2023-08-12T22:48:01.933Z,16.00
2023-08-12T22:50:28.958Z,16.00
2023-08-12T22:52:55.808Z,15.90
2023-08-12T22:55:22.728Z,15.80
2023-08-12T22:57:49.574Z,15.70
2023-08-12T23:00:16.722Z,15.60
2023-08-12T23:02:44.014Z,15.60
2023-08-12T23:05:11.426Z,15.80
2023-08-12T23:07:38.398Z,15.80
2023-08-12T23:10:05.849Z,15.80
2023-08-12T23:12:32.810Z,15.80
2023-08-12T23:14:59.749Z,15.80
2023-08-12T23:17:26.711Z,15.70
2023-08-12T23:19:53.633Z,15.50
2023-08-12T23:22:20.801Z,15.50
2023-08-12T23:24:47.721Z,15.40
2023-08-12T23:27:14.553Z,15.50
2023-08-12T23:29:41.494Z,15.60
2023-08-12T23:32:08.913Z,15.50
2023-08-12T23:34:35.882Z,15.60
2023-08-12T23:37:03.204Z,15.60
2023-08-12T23:39:31.865Z,15.60
2023-08-12T23:41:58.797Z,15.60
2023-08-12T23:44:25.684Z,15.50
2023-08-12T23:46:52.616Z,15.50
2023-08-12T23:49:19.862Z,15.30
2023-08-12T23:51:48.717Z,15.30
2023-08-12T23:54:15.613Z,15.30
2023-08-12T23:56:42.577Z,15.30
2023-08-12T23:59:09.411Z,15.20
